Time;durP1;ratioP1;P1;durP2;ratioP2;P2;SDS_P1;SDS_P2;PMS_P1;PMS_P2;Temp;Humidity;BMP_temperature;BMP_pressure;BME280_temperature;BME280_humidity;BME280_pressure;Samples;Min_cycle;Max_cycle;Signal;HPM_P1;HPM_P2
2022/01/06 00:01:35;;;;;;;10.07;5.68;;;0.80;99.90;;;;;;5091103;28;20471;-57
2022/01/06 00:04:01;;;;;;;45.25;14.38;;;0.90;99.90;;;;;;5091655;28;20103;-56
2022/01/06 00:06:27;;;;;;;17.38;5.60;;;0.90;99.90;;;;;;5073250;28;20032;-58
2022/01/06 00:08:55;;;;;;;23.88;10.15;;;1.00;99.90;;;;;;5091247;28;20036;-57
2022/01/06 00:11:21;;;;;;;26.40;9.65;;;0.80;99.90;;;;;;5090685;28;20368;-58
2022/01/06 00:13:56;;;;;;;8.90;5.88;;;0.80;99.90;;;;;;5091054;28;20123;-58
2022/01/06 00:23:58;;;;;;;27.05;11.52;;;1.00;99.90;;;;;;5091539;28;20111;-57
2022/01/06 00:26:23;;;;;;;9.82;6.22;;;0.90;99.90;;;;;;5091121;28;20518;-56
2022/01/06 00:28:50;;;;;;;9.50;6.05;;;0.90;99.90;;;;;;5091594;28;20024;-56
2022/01/06 00:31:15;;;;;;;54.63;17.75;;;0.90;99.90;;;;;;5091116;28;20035;-57
2022/01/06 00:33:41;;;;;;;10.32;6.60;;;0.80;99.90;;;;;;5091087;28;20036;-58
2022/01/06 00:36:07;;;;;;;11.25;6.43;;;0.90;99.90;;;;;;5091034;28;20486;-58
2022/01/06 00:38:32;;;;;;;9.02;5.38;;;0.90;99.90;;;;;;5090785;28;20172;-55
2022/01/06 00:40:58;;;;;;;27.10;9.82;;;0.90;99.90;;;;;;5091118;28;20013;-57
2022/01/06 00:43:24;;;;;;;7.15;4.70;;;0.80;99.90;;;;;;5090742;28;20025;-57
2022/01/06 00:45:50;;;;;;;12.32;6.47;;;0.80;99.90;;;;;;5091038;28;20029;-58
2022/01/06 00:48:16;;;;;;;9.15;5.93;;;0.80;99.90;;;;;;5091152;28;20032;-58
2022/01/06 00:50:42;;;;;;;8.20;5.22;;;0.80;99.90;;;;;;5090940;28;20107;-57
2022/01/06 00:53:09;;;;;;;6.10;5.25;;;0.80;99.90;;;;;;5091046;28;20029;-57
2022/01/06 00:55:36;;;;;;;7.53;4.95;;;0.80;99.90;;;;;;5090735;28;20036;-58
2022/01/06 00:58:02;;;;;;;8.93;4.97;;;0.90;99.90;;;;;;5090862;28;20028;-56
2022/01/06 01:00:37;;;;;;;7.30;5.05;;;0.80;99.90;;;;;;5090644;28;20035;-58
2022/01/06 01:03:05;;;;;;;14.25;5.80;;;0.80;99.90;;;;;;5091062;28;20047;-56
2022/01/06 01:05:31;;;;;;;9.43;5.45;;;0.90;99.90;;;;;;5090858;28;20023;-57
2022/01/06 01:07:57;;;;;;;6.75;5.13;;;0.80;99.90;;;;;;5090911;28;20032;-55
2022/01/06 01:10:22;;;;;;;6.05;4.65;;;0.80;99.90;;;;;;5091146;28;20030;-58
2022/01/06 01:12:49;;;;;;;7.75;5.00;;;0.80;99.90;;;;;;5090640;28;20794;-58
2022/01/06 01:15:21;;;;;;;7.18;5.40;;;0.80;99.90;;;;;;5090897;28;20074;-58
2022/01/06 01:17:51;;;;;;;10.38;5.25;;;0.70;99.90;;;;;;5090754;28;20034;-58
2022/01/06 01:20:18;;;;;;;5.57;4.55;;;0.70;99.90;;;;;;5091114;28;20378;-57
2022/01/06 01:22:45;;;;;;;6.05;5.35;;;0.70;99.90;;;;;;5090634;28;20017;-54
2022/01/06 01:25:11;;;;;;;8.68;5.38;;;0.60;99.90;;;;;;5093965;28;20024;-58
2022/01/06 01:27:41;;;;;;;7.70;4.65;;;0.60;99.90;;;;;;5093739;28;20028;-58
2022/01/06 01:30:12;;;;;;;7.63;4.53;;;0.50;99.90;;;;;;5093802;28;20062;-57
2022/01/06 01:32:39;;;;;;;6.68;5.40;;;0.50;99.90;;;;;;5094354;28;20051;-56
2022/01/06 01:35:08;;;;;;;9.55;4.10;;;0.60;99.90;;;;;;5094329;28;20028;-57
2022/01/06 01:37:34;;;;;;;8.70;4.47;;;0.60;99.90;;;;;;5094023;28;20039;-57
2022/01/06 01:40:01;;;;;;;5.63;4.57;;;0.60;99.90;;;;;;5094150;28;20063;-56
2022/01/06 01:42:27;;;;;;;8.85;4.55;;;0.70;99.90;;;;;;5093973;28;20032;-58
2022/01/06 01:44:54;;;;;;;8.63;4.30;;;0.60;99.90;;;;;;5075493;28;21552;-56
2022/01/06 01:47:38;;;;;;;5.20;4.03;;;0.60;99.90;;;;;;5094146;28;20024;-58
2022/01/06 01:50:13;;;;;;;8.25;4.63;;;0.60;99.90;;;;;;5094379;28;20087;-58
2022/01/06 01:52:43;;;;;;;8.52;4.38;;;0.60;99.90;;;;;;5093005;28;20024;-57
2022/01/06 01:55:11;;;;;;;7.03;4.22;;;0.60;99.90;;;;;;5093048;28;20039;-57
2022/01/06 01:57:37;;;;;;;4.68;3.97;;;0.60;99.90;;;;;;5093724;28;20387;-57
2022/01/06 02:00:06;;;;;;;10.50;4.57;;;0.50;99.90;;;;;;5094217;28;20028;-58
2022/01/06 02:02:31;;;;;;;9.80;4.18;;;0.60;99.90;;;;;;5075277;28;20057;-57
2022/01/06 02:04:57;;;;;;;8.45;4.53;;;0.60;99.90;;;;;;5094047;28;20028;-57
2022/01/06 02:07:23;;;;;;;6.63;3.85;;;0.50;99.90;;;;;;5093557;28;20486;-58
2022/01/06 02:09:48;;;;;;;6.53;4.38;;;0.50;99.90;;;;;;5093481;28;20032;-56
2022/01/06 02:12:29;;;;;;;12.18;4.00;;;0.40;99.90;;;;;;5093280;28;20336;-58
2022/01/06 02:14:55;;;;;;;10.25;4.78;;;0.40;99.90;;;;;;5093434;28;20422;-55
2022/01/06 02:17:21;;;;;;;7.43;5.88;;;0.50;99.90;;;;;;5093181;28;20036;-57
2022/01/06 02:19:53;;;;;;;8.10;4.70;;;0.60;99.90;;;;;;5092981;28;20431;-57
2022/01/06 02:22:19;;;;;;;11.98;4.85;;;0.50;99.90;;;;;;5093362;28;20027;-57
2022/01/06 02:24:45;;;;;;;11.32;4.78;;;0.50;99.90;;;;;;5093468;28;20016;-57
2022/01/06 02:27:10;;;;;;;9.88;4.20;;;0.60;99.90;;;;;;5093132;28;20074;-57
2022/01/06 02:29:36;;;;;;;6.00;3.78;;;0.60;99.90;;;;;;5093420;28;20528;-58
2022/01/06 02:32:10;;;;;;;11.45;4.15;;;0.70;99.90;;;;;;5093136;28;20028;-57
2022/01/06 02:34:35;;;;;;;5.15;3.45;;;0.70;99.90;;;;;;5092833;28;20655;-58
2022/01/06 02:37:03;;;;;;;4.88;3.25;;;0.80;99.90;;;;;;5092936;28;20107;-57
2022/01/06 02:39:29;;;;;;;7.78;3.80;;;0.80;99.90;;;;;;5093229;28;20021;-58
2022/01/06 02:41:55;;;;;;;5.38;3.90;;;0.80;99.90;;;;;;5092722;28;20035;-58
2022/01/06 02:44:25;;;;;;;4.07;3.15;;;0.90;99.90;;;;;;5092975;28;20024;-57
2022/01/06 02:46:52;;;;;;;8.13;3.90;;;0.90;99.90;;;;;;5093007;28;20035;-57
2022/01/06 02:49:18;;;;;;;6.15;3.60;;;0.80;99.90;;;;;;5092945;28;20064;-58
2022/01/06 02:51:44;;;;;;;10.57;4.05;;;0.90;99.90;;;;;;5092860;28;20055;-58
2022/01/06 02:54:09;;;;;;;5.10;3.72;;;0.80;99.90;;;;;;5092926;28;20040;-58
2022/01/06 02:56:37;;;;;;;12.15;4.03;;;0.90;99.90;;;;;;5092505;28;20523;-58
2022/01/06 02:59:03;;;;;;;5.28;3.65;;;0.80;99.90;;;;;;5092683;28;20021;-58
2022/01/06 03:01:29;;;;;;;4.38;3.67;;;0.90;99.90;;;;;;5092389;28;20028;-56
2022/01/06 03:03:55;;;;;;;6.70;4.78;;;0.80;99.90;;;;;;5092759;28;20028;-58
2022/01/06 03:06:20;;;;;;;10.57;4.43;;;0.80;99.90;;;;;;5092589;28;20479;-58
2022/01/06 03:08:46;;;;;;;18.70;6.30;;;0.90;99.90;;;;;;5092604;28;20046;-57
2022/01/06 03:11:12;;;;;;;15.43;5.82;;;0.80;99.90;;;;;;5092444;28;20107;-58
2022/01/06 03:13:37;;;;;;;9.40;4.15;;;0.80;99.90;;;;;;5092501;28;20031;-57
2022/01/06 03:16:03;;;;;;;7.75;4.13;;;0.80;99.90;;;;;;5091902;28;20040;-57
2022/01/06 03:18:29;;;;;;;10.57;5.32;;;0.90;99.90;;;;;;5091724;28;20024;-58
2022/01/06 03:20:55;;;;;;;4.55;4.10;;;0.90;99.90;;;;;;5073697;28;20031;-58
2022/01/06 03:23:21;;;;;;;7.18;3.88;;;0.90;99.90;;;;;;5092379;28;20048;-58
2022/01/06 03:25:47;;;;;;;22.55;9.68;;;0.90;99.90;;;;;;5092214;28;20016;-57
2022/01/06 03:28:12;;;;;;;13.52;5.68;;;1.00;99.90;;;;;;5092451;28;20475;-56
2022/01/06 03:30:38;;;;;;;9.75;4.80;;;0.90;99.90;;;;;;5091916;28;20036;-57
2022/01/06 03:33:04;;;;;;;6.20;3.70;;;0.90;99.90;;;;;;5091956;28;20486;-58
2022/01/06 03:35:34;;;;;;;13.90;7.20;;;0.90;99.90;;;;;;5092192;28;20024;-56
2022/01/06 03:38:00;;;;;;;13.98;6.70;;;0.90;99.90;;;;;;5091739;28;20032;-56
2022/01/06 03:40:26;;;;;;;6.07;4.03;;;0.90;99.90;;;;;;5074013;28;20111;-58
2022/01/06 03:42:51;;;;;;;13.15;7.40;;;0.90;99.90;;;;;;5091864;28;20024;-58
2022/01/06 03:45:19;;;;;;;22.90;10.98;;;0.90;99.90;;;;;;5091637;28;20028;-57
2022/01/06 03:47:45;;;;;;;7.78;4.63;;;0.90;99.90;;;;;;5090721;28;20031;-58
2022/01/06 03:50:12;;;;;;;22.98;9.90;;;0.90;99.90;;;;;;5092085;28;20036;-58
2022/01/06 03:52:38;;;;;;;57.05;16.55;;;0.90;99.90;;;;;;5091693;28;20413;-57
2022/01/06 03:55:07;;;;;;;21.85;8.02;;;0.90;99.90;;;;;;5091825;28;20132;-57
2022/01/06 03:57:34;;;;;;;29.58;11.88;;;0.90;99.90;;;;;;5091125;28;20633;-58
2022/01/06 04:00:00;;;;;;;10.30;6.10;;;0.90;99.90;;;;;;5091491;28;20020;-58
2022/01/06 04:02:26;;;;;;;17.83;6.25;;;1.00;99.90;;;;;;5073090;28;20068;-57
2022/01/06 04:04:52;;;;;;;6.22;4.13;;;1.00;99.90;;;;;;5091803;28;20021;-56
2022/01/06 04:07:17;;;;;;;11.07;6.55;;;1.00;99.90;;;;;;5091493;28;20028;-57
2022/01/06 04:09:43;;;;;;;11.45;5.90;;;1.00;99.90;;;;;;5091319;28;20054;-57
2022/01/06 04:12:10;;;;;;;12.50;7.55;;;1.00;99.90;;;;;;5091286;28;20314;-57
2022/01/06 04:14:37;;;;;;;7.03;5.00;;;1.00;99.90;;;;;;5091430;28;20140;-57
2022/01/06 04:17:07;;;;;;;14.65;5.70;;;1.00;99.90;;;;;;5091493;28;20024;-57
2022/01/06 04:19:34;;;;;;;10.38;4.85;;;0.90;99.90;;;;;;5091099;28;20028;-55
2022/01/06 04:21:59;;;;;;;5.63;4.50;;;0.90;99.90;;;;;;5091152;28;20024;-56
2022/01/06 04:24:25;;;;;;;7.68;4.55;;;1.00;99.90;;;;;;5091566;28;20030;-57
2022/01/06 04:26:51;;;;;;;7.90;4.20;;;0.90;99.90;;;;;;5091071;28;20046;-57
2022/01/06 04:29:16;;;;;;;7.22;5.10;;;1.00;99.90;;;;;;5091463;28;20471;-58
2022/01/06 04:31:42;;;;;;;19.30;4.78;;;0.90;99.90;;;;;;5091215;28;20024;-58
2022/01/06 04:34:08;;;;;;;8.15;4.32;;;1.00;99.90;;;;;;5091552;28;20533;-57
2022/01/06 04:36:34;;;;;;;10.25;4.22;;;1.00;99.90;;;;;;5072854;28;20074;-58
2022/01/06 04:38:59;;;;;;;10.32;5.15;;;1.00;99.90;;;;;;5090957;28;20028;-58
2022/01/06 04:41:25;;;;;;;5.28;4.10;;;1.00;99.90;;;;;;5091061;28;20016;-57
2022/01/06 04:43:50;;;;;;;5.43;4.07;;;1.00;99.90;;;;;;5091223;28;20088;-58
2022/01/06 04:46:16;;;;;;;9.85;4.05;;;0.90;99.90;;;;;;5091179;28;20032;-58
2022/01/06 04:48:42;;;;;;;5.05;4.25;;;1.00;99.90;;;;;;5091122;28;20040;-58
2022/01/06 04:51:08;;;;;;;6.15;4.28;;;0.90;99.90;;;;;;5073154;28;20110;-58
2022/01/06 04:53:34;;;;;;;7.93;4.50;;;0.90;99.90;;;;;;5090848;28;20059;-58
2022/01/06 04:56:00;;;;;;;14.05;5.63;;;0.90;99.90;;;;;;5090778;28;20060;-56
2022/01/06 04:58:28;;;;;;;12.70;6.20;;;0.90;99.90;;;;;;5093167;28;20048;-58
2022/01/06 05:00:54;;;;;;;6.70;3.90;;;0.90;99.90;;;;;;5094708;28;20363;-58
2022/01/06 05:03:19;;;;;;;13.85;5.22;;;0.90;99.90;;;;;;5095152;28;20028;-58
2022/01/06 05:05:45;;;;;;;8.23;4.95;;;1.00;99.90;;;;;;5094499;28;20085;-57
2022/01/06 05:08:11;;;;;;;7.60;4.25;;;1.00;99.90;;;;;;5094382;28;20035;-57
2022/01/06 05:10:36;;;;;;;8.80;4.68;;;1.00;99.90;;;;;;5094462;28;20506;-57
2022/01/06 05:13:02;;;;;;;8.82;5.97;;;1.00;99.90;;;;;;5094498;28;20375;-57
2022/01/06 05:15:28;;;;;;;8.93;5.00;;;1.00;99.90;;;;;;5094945;28;20031;-57
2022/01/06 05:17:53;;;;;;;14.23;5.22;;;0.90;99.90;;;;;;5094714;28;20051;-57
2022/01/06 05:20:25;;;;;;;5.70;4.18;;;0.90;99.90;;;;;;5094125;28;20032;-57
2022/01/06 05:22:54;;;;;;;7.18;4.00;;;0.90;99.90;;;;;;5094584;28;20024;-57
2022/01/06 05:25:24;;;;;;;9.70;5.03;;;0.90;99.90;;;;;;5094626;28;20028;-57
2022/01/06 05:27:50;;;;;;;7.80;4.10;;;0.90;99.90;;;;;;5076199;28;20036;-58
2022/01/06 05:30:15;;;;;;;6.18;3.80;;;0.90;99.90;;;;;;5094684;28;20035;-58
2022/01/06 05:32:41;;;;;;;5.40;4.65;;;0.90;99.90;;;;;;5094139;28;20039;-58
2022/01/06 05:35:07;;;;;;;4.85;4.22;;;0.80;99.90;;;;;;5094658;28;20136;-58
2022/01/06 05:37:32;;;;;;;8.85;5.13;;;0.70;99.90;;;;;;5094123;28;20115;-58
2022/01/06 05:39:58;;;;;;;9.75;4.78;;;0.80;99.90;;;;;;5094186;28;20100;-58
2022/01/06 05:42:24;;;;;;;4.20;3.58;;;0.70;99.90;;;;;;5093704;28;20115;-56
2022/01/06 05:44:49;;;;;;;6.57;4.43;;;0.70;99.90;;;;;;5094567;28;20012;-57
2022/01/06 05:47:15;;;;;;;8.68;4.82;;;0.70;99.90;;;;;;5094273;28;20513;-58
2022/01/06 05:49:41;;;;;;;8.63;4.90;;;0.70;99.90;;;;;;5094010;28;20520;-58
2022/01/06 05:52:07;;;;;;;9.77;4.15;;;0.60;99.90;;;;;;5093918;28;20061;-57
2022/01/06 05:54:33;;;;;;;9.82;5.60;;;0.70;99.90;;;;;;5093839;28;20044;-58
2022/01/06 05:56:58;;;;;;;8.43;4.35;;;0.70;99.90;;;;;;5093705;28;20086;-58
2022/01/06 05:59:24;;;;;;;10.25;4.35;;;0.70;99.90;;;;;;5094044;28;20016;-57
2022/01/06 06:01:50;;;;;;;10.02;4.53;;;0.70;99.90;;;;;;5071430;28;20343;-58
2022/01/06 06:04:16;;;;;;;7.10;4.57;;;0.80;99.90;;;;;;5093721;28;20032;-58
2022/01/06 06:06:41;;;;;;;6.63;4.45;;;0.80;99.90;;;;;;5093649;28;20040;-57
2022/01/06 06:09:07;;;;;;;8.57;4.85;;;0.80;99.90;;;;;;5093054;28;20394;-58
2022/01/06 06:11:32;;;;;;;6.97;4.30;;;0.80;99.90;;;;;;5093408;28;20548;-56
2022/01/06 06:13:59;;;;;;;5.60;4.20;;;0.80;99.90;;;;;;5093935;28;20371;-57
2022/01/06 06:16:25;;;;;;;5.60;4.45;;;0.80;99.90;;;;;;5093381;28;20538;-57
2022/01/06 06:18:51;;;;;;;7.15;4.40;;;0.80;99.90;;;;;;5093598;28;20458;-55
2022/01/06 06:21:17;;;;;;;9.02;4.35;;;0.80;99.90;;;;;;5093570;28;20081;-57
2022/01/06 06:23:42;;;;;;;7.35;4.35;;;0.80;99.90;;;;;;5068470;28;20039;-57
2022/01/06 06:26:08;;;;;;;5.05;4.45;;;0.80;99.90;;;;;;5091914;28;20027;-57
2022/01/06 06:28:34;;;;;;;13.48;4.47;;;0.80;99.90;;;;;;5093375;28;20024;-58
2022/01/06 06:30:59;;;;;;;5.88;4.05;;;0.80;99.90;;;;;;5093419;28;20560;-58
2022/01/06 06:33:25;;;;;;;4.40;3.63;;;0.90;99.90;;;;;;5093085;28;20471;-58
2022/01/06 06:35:51;;;;;;;5.72;4.28;;;0.90;99.90;;;;;;5075123;28;20020;-56
2022/01/06 06:38:17;;;;;;;5.32;3.92;;;1.00;99.90;;;;;;5055285;28;20033;-58
2022/01/06 06:40:42;;;;;;;5.90;4.22;;;1.00;99.90;;;;;;5073177;28;20025;-58
2022/01/06 06:43:13;;;;;;;8.80;3.95;;;1.10;99.90;;;;;;5091092;28;20644;-58
2022/01/06 06:45:39;;;;;;;5.05;3.47;;;1.10;99.90;;;;;;5093083;28;20031;-58
2022/01/06 06:48:05;;;;;;;4.38;4.00;;;1.10;99.90;;;;;;5092711;28;20020;-58
2022/01/06 06:50:31;;;;;;;19.33;5.30;;;1.00;99.90;;;;;;5093015;28;20518;-57
2022/01/06 06:52:57;;;;;;;6.40;4.35;;;1.00;99.90;;;;;;5092919;28;20036;-58
2022/01/06 06:55:22;;;;;;;4.75;3.83;;;1.00;99.90;;;;;;5073925;28;20043;-56
2022/01/06 06:57:48;;;;;;;9.02;4.70;;;1.00;99.90;;;;;;5092397;28;20036;-58
2022/01/06 07:00:14;;;;;;;8.43;4.65;;;1.00;99.90;;;;;;5092310;28;20018;-58
2022/01/06 07:02:40;;;;;;;9.50;4.28;;;1.00;99.90;;;;;;5092449;28;20035;-57
2022/01/06 07:05:06;;;;;;;6.43;4.18;;;1.00;99.90;;;;;;5092685;28;20515;-56
2022/01/06 07:07:32;;;;;;;11.35;4.70;;;1.10;99.90;;;;;;5092722;28;20028;-55
2022/01/06 07:09:58;;;;;;;8.07;4.18;;;1.10;99.90;;;;;;5074446;28;20455;-56
2022/01/06 07:12:24;;;;;;;5.22;4.57;;;1.10;99.90;;;;;;5092412;28;20047;-56
2022/01/06 07:14:50;;;;;;;8.48;4.20;;;1.20;99.90;;;;;;5092632;28;20344;-59
2022/01/06 07:17:15;;;;;;;10.88;5.00;;;1.20;99.90;;;;;;5091711;28;20056;-58
2022/01/06 07:19:41;;;;;;;6.47;4.88;;;1.20;99.90;;;;;;5092549;28;20081;-58
2022/01/06 07:22:07;;;;;;;6.55;4.70;;;1.30;99.90;;;;;;5091215;28;20024;-59
2022/01/06 07:24:33;;;;;;;6.45;5.60;;;1.20;99.90;;;;;;5092056;28;20032;-59
2022/01/06 07:27:00;;;;;;;7.70;4.90;;;1.20;99.90;;;;;;5073518;28;20406;-59
2022/01/06 07:29:26;;;;;;;10.20;5.05;;;1.20;99.90;;;;;;5091860;28;20066;-58
2022/01/06 07:31:52;;;;;;;7.57;4.13;;;1.20;99.90;;;;;;5091731;28;20027;-58
2022/01/06 07:34:18;;;;;;;4.57;4.10;;;1.30;99.90;;;;;;5092008;28;20387;-58
2022/01/06 07:36:44;;;;;;;8.35;3.95;;;1.30;99.90;;;;;;5091708;28;20058;-59
2022/01/06 07:39:09;;;;;;;4.68;3.67;;;1.30;99.90;;;;;;5084329;28;20462;-57
2022/01/06 07:41:35;;;;;;;5.55;4.80;;;1.30;99.90;;;;;;5092206;28;20028;-59
2022/01/06 07:44:02;;;;;;;5.70;4.30;;;1.30;99.90;;;;;;5091577;28;20027;-57
2022/01/06 07:46:28;;;;;;;7.35;4.28;;;1.40;99.90;;;;;;5091694;28;20020;-59
2022/01/06 07:48:57;;;;;;;4.65;4.25;;;1.40;99.90;;;;;;5091722;28;20504;-59
2022/01/06 07:51:25;;;;;;;8.73;4.70;;;1.40;99.90;;;;;;5091100;28;20036;-59
2022/01/06 07:53:51;;;;;;;10.02;5.03;;;1.40;99.90;;;;;;5091378;28;20028;-59
2022/01/06 07:56:17;;;;;;;5.90;4.40;;;1.50;99.90;;;;;;5090602;28;20071;-59
2022/01/06 07:58:43;;;;;;;8.88;4.95;;;1.50;99.90;;;;;;5091829;28;20406;-59
2022/01/06 08:01:10;;;;;;;7.38;4.88;;;1.50;99.90;;;;;;5090676;28;20371;-59
2022/01/06 08:03:35;;;;;;;10.75;5.97;;;1.60;99.90;;;;;;5091447;28;20028;-59
2022/01/06 08:06:01;;;;;;;8.90;4.45;;;1.40;99.90;;;;;;5091454;28;20028;-58
2022/01/06 08:08:27;;;;;;;10.02;5.47;;;1.40;99.90;;;;;;5057205;28;20058;-58
2022/01/06 08:10:52;;;;;;;6.32;4.88;;;1.50;99.90;;;;;;5091375;28;20059;-58
2022/01/06 08:13:18;;;;;;;9.23;4.43;;;1.50;99.90;;;;;;5091644;28;20570;-58
2022/01/06 08:15:44;;;;;;;5.38;4.80;;;1.60;99.90;;;;;;5091477;28;20024;-59
2022/01/06 08:18:09;;;;;;;5.93;5.07;;;1.50;99.90;;;;;;5091069;28;20028;-58
2022/01/06 08:20:36;;;;;;;8.75;4.35;;;1.50;99.90;;;;;;5091245;28;20019;-58
2022/01/06 08:23:02;;;;;;;11.15;4.45;;;1.50;99.90;;;;;;5090969;28;20390;-59
2022/01/06 08:25:28;;;;;;;5.60;4.35;;;1.60;99.90;;;;;;5090893;28;20020;-58
2022/01/06 08:27:53;;;;;;;7.65;4.10;;;1.60;99.90;;;;;;5090820;28;20040;-58
2022/01/06 08:30:19;;;;;;;4.05;3.65;;;1.70;99.90;;;;;;5091570;28;20046;-58
2022/01/06 08:32:44;;;;;;;6.85;4.10;;;1.80;99.90;;;;;;5092196;28;20032;-58
2022/01/06 08:35:10;;;;;;;8.13;5.18;;;1.70;99.90;;;;;;5095594;28;20024;-58
2022/01/06 08:37:36;;;;;;;15.60;6.28;;;1.60;99.90;;;;;;5095295;28;20489;-59
2022/01/06 08:40:03;;;;;;;7.78;5.60;;;1.70;99.90;;;;;;5076553;28;20345;-58
2022/01/06 08:42:28;;;;;;;15.95;7.07;;;1.70;99.90;;;;;;5095212;28;20047;-59
2022/01/06 08:44:54;;;;;;;11.90;8.02;;;1.70;99.90;;;;;;5094665;28;20028;-59
2022/01/06 08:47:20;;;;;;;9.57;6.07;;;1.70;99.90;;;;;;5095197;28;20051;-59
2022/01/06 08:49:45;;;;;;;16.17;10.52;;;1.70;99.90;;;;;;5095253;28;20027;-58
2022/01/06 08:52:11;;;;;;;17.77;11.25;;;1.70;99.90;;;;;;5095055;28;20340;-59
2022/01/06 08:54:37;;;;;;;21.08;10.88;;;1.70;99.90;;;;;;5095059;28;20083;-58
2022/01/06 08:57:03;;;;;;;13.65;8.00;;;1.60;99.90;;;;;;5094616;28;20035;-57
2022/01/06 08:59:28;;;;;;;33.55;15.93;;;1.40;99.90;;;;;;5076385;28;20016;-58
2022/01/06 09:01:54;;;;;;;14.07;8.45;;;1.30;99.90;;;;;;5094902;28;20597;-57
2022/01/06 09:04:21;;;;;;;13.95;8.48;;;1.30;99.90;;;;;;5095135;28;20032;-58
2022/01/06 09:06:52;;;;;;;16.70;8.88;;;1.30;99.90;;;;;;5094754;28;20062;-58
2022/01/06 09:09:19;;;;;;;19.17;9.30;;;1.40;99.90;;;;;;5094898;28;20424;-58
2022/01/06 09:11:45;;;;;;;34.83;17.67;;;1.30;99.90;;;;;;5094467;28;20084;-58
2022/01/06 09:14:11;;;;;;;10.20;6.95;;;1.30;99.90;;;;;;5094933;28;20042;-57
2022/01/06 09:16:38;;;;;;;7.50;5.10;;;1.30;99.90;;;;;;5094152;28;20032;-58
2022/01/06 09:19:04;;;;;;;9.02;5.97;;;1.30;99.90;;;;;;5094346;28;20024;-58
2022/01/06 09:21:29;;;;;;;7.25;5.85;;;1.40;99.90;;;;;;5093458;28;20038;-56
2022/01/06 09:23:57;;;;;;;20.65;10.10;;;1.50;99.90;;;;;;5094746;28;20031;-58
2022/01/06 09:26:23;;;;;;;23.17;11.95;;;1.40;99.90;;;;;;5094184;28;20505;-57
2022/01/06 09:28:48;;;;;;;21.38;10.10;;;1.40;99.90;;;;;;5094490;28;20024;-58
2022/01/06 09:31:14;;;;;;;17.23;7.68;;;1.40;99.90;;;;;;5094393;28;20508;-57
2022/01/06 09:33:40;;;;;;;9.68;7.63;;;1.50;99.90;;;;;;5094459;28;20047;-58
2022/01/06 09:36:06;;;;;;;6.68;5.18;;;1.70;99.90;;;;;;5076445;28;20027;-58
2022/01/06 09:38:31;;;;;;;9.82;5.18;;;1.90;99.90;;;;;;5094042;28;20032;-58
2022/01/06 09:41:03;;;;;;;8.60;6.82;;;2.00;99.90;;;;;;5094364;28;20049;-58
2022/01/06 09:43:31;;;;;;;8.02;4.45;;;1.90;99.90;;;;;;5093952;28;20077;-59
2022/01/06 09:46:05;;;;;;;7.10;5.50;;;1.90;99.90;;;;;;5093360;28;20027;-58
2022/01/06 09:48:35;;;;;;;9.65;4.97;;;2.20;99.90;;;;;;5093878;28;20036;-59
2022/01/06 09:51:00;;;;;;;6.10;4.35;;;3.30;99.90;;;;;;5093776;28;20055;-59
2022/01/06 09:53:26;;;;;;;7.30;5.47;;;4.20;99.90;;;;;;5093753;28;20063;-56
2022/01/06 09:55:52;;;;;;;5.85;4.60;;;4.20;99.90;;;;;;5094049;28;20578;-57
2022/01/06 09:58:26;;;;;;;6.47;5.13;;;4.20;99.90;;;;;;5093646;28;20028;-59
2022/01/06 10:00:52;;;;;;;4.18;3.85;;;3.70;99.90;;;;;;5093817;28;20016;-57
2022/01/06 10:03:18;;;;;;;6.30;3.75;;;3.80;99.90;;;;;;5075829;28;20056;-59
2022/01/06 10:05:50;;;;;;;3.78;3.40;;;3.70;99.90;;;;;;5093977;28;20646;-58
2022/01/06 10:08:29;;;;;;;6.72;3.95;;;3.30;99.90;;;;;;5093899;28;20028;-59
2022/01/06 10:11:25;;;;;;;7.25;4.70;;;2.80;99.90;;;;;;5092482;28;20028;-59
2022/01/06 10:14:20;;;;;;;5.78;4.20;;;2.70;99.90;;;;;;5092087;28;20488;-57
2022/01/06 10:16:50;;;;;;;4.68;4.28;;;2.60;99.90;;;;;;5091360;28;20418;-59
2022/01/06 10:19:16;;;;;;;5.57;4.45;;;2.40;99.90;;;;;;5093644;28;20043;-59
2022/01/06 10:21:43;;;;;;;6.93;4.68;;;2.70;99.90;;;;;;5093617;28;20024;-57
2022/01/06 10:24:20;;;;;;;4.53;4.10;;;2.90;99.90;;;;;;5093523;28;20028;-54
2022/01/06 10:27:06;;;;;;;5.03;4.03;;;2.90;99.90;;;;;;5093623;28;20035;-56
2022/01/06 10:29:37;;;;;;;18.10;5.75;;;2.50;99.90;;;;;;5092801;28;20034;-55
2022/01/06 10:32:08;;;;;;;8.52;3.80;;;2.50;99.90;;;;;;5093244;28;20482;-56
2022/01/06 10:34:39;;;;;;;10.40;6.70;;;2.70;99.90;;;;;;5076755;28;20039;-56
2022/01/06 10:37:27;;;;;;;12.55;5.35;;;2.60;99.90;;;;;;5092984;28;20024;-56
2022/01/06 10:40:00;;;;;;;8.07;4.10;;;2.70;99.90;;;;;;5085018;28;20378;-56
2022/01/06 10:42:27;;;;;;;;;;;2.90;99.90;;;;;;5077652;28;20021;-57
2022/01/06 10:45:00;;;;;;;4.40;4.00;;;2.90;99.90;;;;;;5093012;28;19908;-58
2022/01/06 10:47:34;;;;;;;5.13;4.10;;;2.90;99.90;;;;;;5092690;28;20058;-57
2022/01/06 10:50:11;;;;;;;20.15;5.63;;;2.80;99.90;;;;;;5072930;28;20039;-58
2022/01/06 10:52:39;;;;;;;5.15;3.97;;;2.60;99.90;;;;;;5087905;28;20391;-55
2022/01/06 10:55:16;;;;;;;5.25;4.00;;;2.90;99.90;;;;;;5091784;28;20488;-57
2022/01/06 10:58:09;;;;;;;8.75;3.83;;;2.80;99.90;;;;;;5092439;28;20051;-58
2022/01/06 11:00:45;;;;;;;6.80;4.78;;;2.90;99.90;;;;;;5072706;28;20123;-57
2022/01/06 11:03:19;;;;;;;9.85;4.40;;;3.00;99.90;;;;;;5085474;28;20031;-56
2022/01/06 11:05:51;;;;;;;6.03;4.18;;;2.90;99.90;;;;;;5092940;28;20111;-58
2022/01/06 11:08:24;;;;;;;12.90;5.78;;;3.10;99.90;;;;;;5092444;28;20031;-58
2022/01/06 11:11:13;;;;;;;8.98;3.97;;;2.90;99.90;;;;;;5074564;28;20426;-59
2022/01/06 11:13:40;;;;;;;9.05;4.13;;;2.90;99.90;;;;;;5091841;28;20035;-54
2022/01/06 11:16:06;;;;;;;8.93;4.50;;;3.10;99.90;;;;;;5092292;28;20020;-56
2022/01/06 11:18:33;;;;;;;7.65;4.07;;;3.10;99.90;;;;;;5092190;28;20066;-56
2022/01/06 11:21:12;;;;;;;7.10;4.65;;;3.30;99.90;;;;;;5092563;28;20070;-57
2022/01/06 11:23:38;;;;;;;5.57;4.38;;;3.20;99.90;;;;;;5091976;28;20020;-55
2022/01/06 11:26:31;;;;;;;10.32;4.80;;;3.30;99.90;;;;;;5094074;28;20027;-57
2022/01/06 11:28:59;;;;;;;8.88;5.05;;;3.30;99.90;;;;;;5077054;28;20061;-58
2022/01/06 11:31:28;;;;;;;6.05;4.28;;;3.00;99.90;;;;;;5081546;28;20409;-57
2022/01/06 11:33:56;;;;;;;11.27;4.20;;;2.90;99.90;;;;;;5081043;28;20093;-56
2022/01/06 11:36:25;;;;;;;7.72;3.90;;;3.00;99.90;;;;;;5067646;28;20024;-56
2022/01/06 11:38:52;;;;;;;5.28;3.88;;;2.90;99.90;;;;;;5099869;28;20035;-57
2022/01/06 11:41:18;;;;;;;6.03;4.20;;;3.10;99.90;;;;;;5085260;28;20115;-57
2022/01/06 11:43:45;;;;;;;6.53;4.43;;;3.10;99.90;;;;;;5077064;28;20510;-55
2022/01/06 11:46:13;;;;;;;6.60;4.10;;;3.00;99.90;;;;;;5083012;28;20063;-56
2022/01/06 11:48:53;;;;;;;8.60;4.63;;;2.80;99.90;;;;;;5082659;28;20035;-56
2022/01/06 11:51:33;;;;;;;11.27;4.45;;;2.70;99.90;;;;;;5081407;28;20052;-57
2022/01/06 11:54:11;;;;;;;6.43;4.63;;;2.80;99.90;;;;;;5081488;28;20032;-56
2022/01/06 11:56:49;;;;;;;4.97;4.43;;;2.80;99.90;;;;;;5081138;28;20035;-54
2022/01/06 11:59:31;;;;;;;11.27;4.47;;;2.70;99.90;;;;;;5080898;28;20020;-57
2022/01/06 12:01:57;;;;;;;10.90;4.28;;;2.70;99.90;;;;;;5084860;28;20004;-56
2022/01/06 12:04:24;;;;;;;50.33;17.98;;;2.80;99.90;;;;;;5096253;28;20034;-57
2022/01/06 12:06:50;;;;;;;17.27;8.05;;;3.00;99.90;;;;;;5101349;28;20111;-56
2022/01/06 12:09:18;;;;;;;12.70;5.68;;;3.00;99.90;;;;;;5094004;28;20023;-57
2022/01/06 12:11:44;;;;;;;15.35;7.53;;;3.00;99.90;;;;;;5084776;28;20442;-57
2022/01/06 12:14:11;;;;;;;11.18;6.00;;;3.10;99.90;;;;;;5086130;28;20061;-57
2022/01/06 12:16:39;;;;;;;7.72;4.30;;;3.10;99.90;;;;;;5097906;28;20031;-56
2022/01/06 12:19:19;;;;;;;9.55;4.60;;;3.00;99.90;;;;;;5100609;28;20020;-57
2022/01/06 12:21:46;;;;;;;7.25;3.75;;;3.20;99.90;;;;;;5100454;28;20081;-58
2022/01/06 12:24:13;;;;;;;6.45;4.05;;;3.40;99.90;;;;;;5089953;28;22386;-57
2022/01/06 12:26:39;;;;;;;8.43;4.40;;;3.50;99.90;;;;;;5092303;28;20043;-56
2022/01/06 12:29:15;;;;;;;7.75;4.90;;;3.40;99.90;;;;;;5084197;28;20034;-57
2022/01/06 12:31:42;;;;;;;5.15;3.92;;;3.40;99.90;;;;;;5084761;28;20036;-56
2022/01/06 12:34:10;;;;;;;9.57;4.50;;;3.50;99.90;;;;;;5083512;28;20116;-57
2022/01/06 12:36:38;;;;;;;7.43;4.50;;;3.10;99.90;;;;;;5084614;28;20036;-57
2022/01/06 12:39:17;;;;;;;7.35;4.40;;;3.00;99.90;;;;;;5079598;28;20043;-56
2022/01/06 12:41:44;;;;;;;6.22;4.25;;;3.20;99.90;;;;;;5062476;28;20020;-57
2022/01/06 12:44:16;;;;;;;6.43;4.30;;;3.30;99.90;;;;;;5079943;28;20382;-56
2022/01/06 12:46:42;;;;;;;12.23;5.25;;;3.10;99.90;;;;;;5080665;28;20371;-57
2022/01/06 12:49:09;;;;;;;7.22;3.95;;;3.20;99.90;;;;;;5079693;28;20402;-56
2022/01/06 12:51:38;;;;;;;9.63;4.47;;;3.20;99.90;;;;;;5079952;28;20389;-57
2022/01/06 12:54:08;;;;;;;8.13;4.35;;;3.00;99.90;;;;;;5079918;28;20583;-54
2022/01/06 12:56:42;;;;;;;13.77;4.82;;;3.10;99.90;;;;;;5079091;28;20060;-55
2022/01/06 12:59:16;;;;;;;5.15;3.50;;;2.90;99.90;;;;;;5079881;28;20059;-58
2022/01/06 13:01:43;;;;;;;5.72;4.85;;;2.90;99.90;;;;;;5079044;28;20032;-54
2022/01/06 13:04:11;;;;;;;6.93;3.97;;;2.70;99.90;;;;;;5080148;28;20031;-56